Time;durP1;ratioP1;P1;durP2;ratioP2;P2;SDS_P1;SDS_P2;PMS_P1;PMS_P2;Temp;Humidity;BMP_temperature;BMP_pressure;BME280_temperature;BME280_humidity;BME280_pressure;Samples;Min_cycle;Max_cycle;Signal;HPM_P1;HPM_P2
2022/08/26 00:01:03;;;;;;;1999.90;999.90;;;20.50;99.90;;;;;;5046843;28;20057;-84
2022/08/26 00:03:30;;;;;;;1990.32;999.90;;;20.50;99.90;;;;;;5042788;28;20045;-85
2022/08/26 00:05:56;;;;;;;1896.03;999.90;;;20.40;99.90;;;;;;5016927;28;20040;-88
2022/08/26 00:08:25;;;;;;;1999.90;999.90;;;20.40;99.90;;;;;;5033889;28;20049;-85
2022/08/26 00:10:50;;;;;;;1999.90;999.90;;;20.50;99.90;;;;;;5016991;28;20511;-84
2022/08/26 00:13:17;;;;;;;1999.90;999.90;;;20.40;99.90;;;;;;5017938;28;20041;-87
2022/08/26 00:15:45;;;;;;;1930.60;999.90;;;20.40;99.90;;;;;;5018305;28;20049;-84
2022/08/26 00:18:12;;;;;;;1999.90;999.90;;;20.30;99.90;;;;;;5050736;28;20048;-85
2022/08/26 00:20:38;;;;;;;1999.90;999.90;;;20.30;99.90;;;;;;5032172;28;20049;-94
2022/08/26 00:23:07;;;;;;;1999.90;999.90;;;20.30;99.90;;;;;;5067984;28;20040;-84
2022/08/26 00:25:33;;;;;;;1999.90;999.90;;;20.10;99.90;;;;;;5054270;28;20051;-83
2022/08/26 00:27:59;;;;;;;1999.90;781.80;;;20.20;99.90;;;;;;5061581;28;20045;-83
2022/08/26 00:30:28;;;;;;;1999.90;872.33;;;20.30;99.90;;;;;;5015261;28;20100;-84
2022/08/26 00:32:54;;;;;;;1999.90;921.13;;;20.00;99.90;;;;;;5030909;28;20494;-83
2022/08/26 00:35:21;;;;;;;1999.90;894.35;;;20.20;99.90;;;;;;5047957;28;20516;-86
2022/08/26 00:37:47;;;;;;;1999.90;971.28;;;20.30;99.90;;;;;;5032685;28;20045;-84
2022/08/26 00:40:19;;;;;;;1999.90;999.90;;;20.30;99.90;;;;;;5051103;28;20041;-84
2022/08/26 00:42:45;;;;;;;1999.90;999.90;;;20.30;99.90;;;;;;5051677;28;20041;-85
2022/08/26 00:45:12;;;;;;;1999.90;999.90;;;20.40;1.00;;;;;;5033671;28;20044;-84
2022/08/26 00:47:56;;;;;;;1999.90;999.90;;;20.40;1.00;;;;;;5032993;28;20051;-84
2022/08/26 00:50:28;;;;;;;1999.90;999.90;;;20.40;1.00;;;;;;5048994;28;20064;-83
2022/08/26 00:52:56;;;;;;;1999.90;999.90;;;20.50;1.00;;;;;;5034550;28;20048;-83
2022/08/26 00:55:40;;;;;;;1999.90;999.90;;;20.40;1.00;;;;;;5035092;28;20092;-84
2022/08/26 00:58:07;;;;;;;1999.90;999.90;;;20.40;1.00;;;;;;5037075;28;20056;-84
2022/08/26 01:00:33;;;;;;;1999.90;999.90;;;20.40;1.00;;;;;;5037422;28;20041;-83
2022/08/26 01:03:00;;;;;;;1999.90;999.90;;;20.40;1.00;;;;;;5037470;28;20390;-84
2022/08/26 01:05:27;;;;;;;1999.90;999.90;;;20.30;1.00;;;;;;5038025;28;20067;-85
2022/08/26 01:07:53;;;;;;;1999.90;999.90;;;20.40;1.00;;;;;;5018519;28;20053;-85
2022/08/26 01:10:23;;;;;;;1999.90;999.90;;;20.40;1.00;;;;;;5053302;28;20041;-83
2022/08/26 01:12:55;;;;;;;1999.90;999.90;;;21.70;1.00;;;;;;5036318;28;20044;-84
2022/08/26 01:15:43;;;;;;;1999.90;999.90;;;20.40;1.00;;;;;;5050437;28;20057;-84
2022/08/26 01:18:10;;;;;;;1999.90;999.90;;;20.40;1.00;;;;;;5054643;28;20045;-84
2022/08/26 01:21:03;;;;;;;1999.90;999.90;;;20.40;1.00;;;;;;5033286;28;20061;-83
2022/08/26 01:23:34;;;;;;;1999.90;999.90;;;20.00;1.00;;;;;;5038727;28;20083;-84
2022/08/26 01:26:07;;;;;;;1999.90;999.90;;;20.50;1.00;;;;;;5037800;28;20056;-85
2022/08/26 01:28:37;;;;;;;1999.90;999.90;;;20.50;1.00;;;;;;5036891;28;20049;-84
2022/08/26 01:31:06;;;;;;;1999.90;999.90;;;20.50;1.00;;;;;;5037540;28;20045;-84
2022/08/26 01:33:43;;;;;;;1999.90;999.90;;;20.50;1.00;;;;;;5036799;28;20088;-85
2022/08/26 01:36:10;;;;;;;1999.90;999.90;;;20.50;1.00;;;;;;5036654;28;20489;-85
2022/08/26 01:38:36;;;;;;;;;;;20.50;1.00;;;;;;5037998;28;20128;-84
2022/08/26 01:41:03;;;;;;;1999.90;999.90;;;20.40;1.00;;;;;;5053051;28;20024;-86
2022/08/26 01:43:31;;;;;;;1999.90;999.90;;;20.60;1.00;;;;;;5036879;28;20045;-86
2022/08/26 01:45:57;;;;;;;1999.90;999.90;;;20.60;1.00;;;;;;5036184;28;20489;-86
2022/08/26 01:48:27;;;;;;;1999.90;999.90;;;20.70;1.00;;;;;;5073516;28;20052;-87
2022/08/26 01:50:53;;;;;;;1999.90;999.90;;;20.70;1.00;;;;;;5049111;28;20102;-85
2022/08/26 01:53:23;;;;;;;1999.90;999.90;;;20.70;1.00;;;;;;5038351;28;20178;-86
2022/08/26 01:55:53;;;;;;;1999.90;999.90;;;20.60;1.00;;;;;;5034666;28;20057;-85
2022/08/26 01:58:26;;;;;;;1999.90;999.90;;;20.60;1.00;;;;;;5053507;28;20045;-86
2022/08/26 02:00:52;;;;;;;1999.90;999.90;;;20.60;1.00;;;;;;5035557;28;20080;-86
2022/08/26 02:03:21;;;;;;;1999.90;999.90;;;20.60;1.00;;;;;;5037452;28;20095;-86
2022/08/26 02:06:07;;;;;;;1999.90;999.90;;;20.70;1.00;;;;;;5052234;28;20493;-90
2022/08/26 02:08:47;;;;;;;1999.90;999.90;;;21.90;1.00;;;;;;5053854;28;20049;-84
2022/08/26 02:11:14;;;;;;;1999.90;999.90;;;19.80;1.00;;;;;;5052324;28;20053;-85
2022/08/26 02:14:08;;;;;;;1999.90;999.90;;;20.70;1.00;;;;;;5036314;28;20481;-85
2022/08/26 02:16:38;;;;;;;1999.90;999.90;;;20.60;1.00;;;;;;5044484;28;20456;-84
2022/08/26 02:19:11;;;;;;;1999.90;999.90;;;20.60;1.00;;;;;;5031145;28;20048;-85
2022/08/26 02:21:38;;;;;;;1999.90;999.90;;;20.60;1.00;;;;;;5034542;28;20489;-85
2022/08/26 02:24:14;;;;;;;1999.90;999.90;;;20.60;1.00;;;;;;5050307;28;20080;-85
2022/08/26 02:26:40;;;;;;;1999.90;999.90;;;20.60;1.00;;;;;;5035221;28;20063;-87
2022/08/26 02:29:18;;;;;;;1999.90;999.90;;;20.60;1.00;;;;;;5047185;28;20052;-85
2022/08/26 02:31:44;;;;;;;1999.90;999.90;;;20.60;1.00;;;;;;5035576;28;20275;-85
2022/08/26 02:34:13;;;;;;;1999.90;999.90;;;20.60;1.00;;;;;;5034633;28;20041;-85
2022/08/26 02:36:39;;;;;;;1999.90;999.90;;;20.60;1.00;;;;;;5052222;28;20132;-86
2022/08/26 02:39:09;;;;;;;1999.90;999.90;;;20.50;1.00;;;;;;5038071;28;20072;-85
2022/08/26 02:41:35;;;;;;;1999.90;999.90;;;20.80;1.00;;;;;;5073738;28;20401;-84
2022/08/26 02:44:01;;;;;;;1999.90;999.90;;;20.50;1.00;;;;;;5058912;28;20164;-85
2022/08/26 02:46:27;;;;;;;1999.90;999.90;;;20.60;1.00;;;;;;5036625;28;20140;-85
2022/08/26 02:48:53;;;;;;;1999.90;999.90;;;19.60;1.00;;;;;;5069518;28;20045;-86
2022/08/26 02:51:18;;;;;;;1999.90;999.90;;;20.60;1.00;;;;;;5051988;28;20094;-84
2022/08/26 02:53:44;;;;;;;1999.90;999.90;;;20.60;1.00;;;;;;5019078;28;20051;-85
2022/08/26 02:56:10;;;;;;;1999.90;999.90;;;20.60;1.00;;;;;;5051347;28;20418;-84
2022/08/26 02:58:36;;;;;;;1999.90;999.90;;;20.60;1.00;;;;;;5051111;28;20486;-85
2022/08/26 03:01:02;;;;;;;1999.90;999.90;;;20.60;1.00;;;;;;5051478;28;20095;-84
2022/08/26 03:03:29;;;;;;;1999.90;999.90;;;20.60;1.00;;;;;;5052351;28;20053;-84
2022/08/26 03:05:55;;;;;;;1999.90;999.90;;;20.60;1.00;;;;;;5035654;28;20481;-84
2022/08/26 03:08:21;;;;;;;1999.90;999.90;;;21.50;1.00;;;;;;5035854;28;20045;-86
2022/08/26 03:10:46;;;;;;;1999.90;999.90;;;20.70;1.00;;;;;;5017338;28;20094;-85
2022/08/26 03:13:13;;;;;;;1999.90;999.90;;;20.70;1.00;;;;;;5050680;28;20049;-84
2022/08/26 03:15:39;;;;;;;1999.90;999.90;;;20.70;1.00;;;;;;5052621;28;20495;-83
2022/08/26 03:18:06;;;;;;;1999.90;999.90;;;20.70;1.00;;;;;;5048920;28;20510;-84
2022/08/26 03:20:32;;;;;;;1999.90;999.90;;;20.60;1.00;;;;;;5050995;28;20414;-85
2022/08/26 03:22:58;;;;;;;1999.90;999.90;;;20.60;1.00;;;;;;5017792;28;20132;-85
2022/08/26 03:25:24;;;;;;;1999.90;999.90;;;20.60;1.00;;;;;;5034884;28;20132;-84
2022/08/26 03:27:51;;;;;;;1999.90;999.90;;;20.80;1.00;;;;;;5018734;28;20045;-84
2022/08/26 03:33:03;;;;;;;1999.90;999.90;;;20.70;1.00;;;;;;5035400;28;20527;-85
2022/08/26 03:35:30;;;;;;;1999.90;999.90;;;20.70;1.00;;;;;;5029815;28;20041;-85
2022/08/26 03:37:56;;;;;;;1999.90;999.90;;;20.80;1.00;;;;;;5046997;28;20064;-91
2022/08/26 03:40:22;;;;;;;1940.47;999.90;;;20.70;1.00;;;;;;5034816;28;20089;-84
2022/08/26 03:42:49;;;;;;;1999.90;999.90;;;20.70;1.00;;;;;;5050799;28;20040;-85
2022/08/26 03:45:17;;;;;;;1999.90;999.90;;;20.80;1.00;;;;;;5035540;28;20048;-84
2022/08/26 03:47:43;;;;;;;1999.90;999.90;;;20.70;1.00;;;;;;5034340;28;20421;-85
2022/08/26 03:50:12;;;;;;;1999.90;999.90;;;20.80;1.00;;;;;;5034675;28;20056;-84
2022/08/26 03:52:39;;;;;;;1999.90;999.90;;;20.80;1.00;;;;;;5051838;28;20201;-85
2022/08/26 03:55:06;;;;;;;1999.90;999.90;;;20.70;1.00;;;;;;5033659;28;20512;-85
2022/08/26 03:57:32;;;;;;;1999.90;999.90;;;20.80;1.00;;;;;;5031140;28;20053;-84
2022/08/26 03:59:58;;;;;;;1999.90;999.90;;;20.80;1.00;;;;;;5032530;28;20045;-85
2022/08/26 04:02:25;;;;;;;1999.90;999.90;;;20.70;1.00;;;;;;5049027;28;20044;-85
2022/08/26 04:04:50;;;;;;;1999.90;999.90;;;21.50;1.00;;;;;;5051752;28;20045;-85
2022/08/26 04:07:19;;;;;;;1999.90;999.90;;;20.70;1.00;;;;;;5034367;28;20052;-84
2022/08/26 04:09:45;;;;;;;1999.90;999.90;;;20.70;1.00;;;;;;5018318;28;20044;-88
2022/08/26 04:12:11;;;;;;;1999.90;999.90;;;20.80;1.00;;;;;;5049492;28;20048;-86
2022/08/26 04:14:37;;;;;;;1999.90;999.90;;;20.70;1.00;;;;;;5050549;28;20041;-85
2022/08/26 04:17:03;;;;;;;1999.90;999.90;;;20.80;1.00;;;;;;5051927;28;20041;-84
2022/08/26 04:19:30;;;;;;;1999.90;999.90;;;20.70;1.00;;;;;;5052236;28;20468;-84
2022/08/26 04:21:56;;;;;;;1999.90;999.90;;;20.80;1.00;;;;;;5049677;28;20076;-85
2022/08/26 04:24:25;;;;;;;1999.90;999.90;;;20.70;1.00;;;;;;5049456;28;20080;-85
2022/08/26 04:26:51;;;;;;;1999.90;999.90;;;20.70;1.00;;;;;;5033795;28;20440;-84
2022/08/26 04:29:22;;;;;;;1999.90;999.90;;;20.80;1.00;;;;;;5033959;28;20077;-85
2022/08/26 04:31:48;;;;;;;1999.90;999.90;;;20.70;1.00;;;;;;5049912;28;20060;-85
2022/08/26 04:34:15;;;;;;;1999.90;999.90;;;20.70;1.00;;;;;;5049413;28;20367;-85
2022/08/26 04:36:41;;;;;;;1999.90;999.90;;;20.70;1.00;;;;;;5039617;28;20052;-85
2022/08/26 04:39:11;;;;;;;1999.90;999.90;;;20.70;1.00;;;;;;5038869;28;20049;-84
2022/08/26 04:41:37;;;;;;;1999.90;999.90;;;20.20;1.00;;;;;;5049886;28;20497;-85
2022/08/26 04:44:05;;;;;;;1999.90;999.90;;;20.70;1.00;;;;;;5050205;28;20045;-90
2022/08/26 04:46:31;;;;;;;;;;;20.60;1.00;;;;;;5067227;28;20059;-85
2022/08/26 04:48:57;;;;;;;1999.90;999.90;;;20.70;1.00;;;;;;5049974;28;20007;-84
2022/08/26 04:51:26;;;;;;;1983.80;999.90;;;20.70;1.00;;;;;;5034072;28;20224;-84
2022/08/26 04:53:57;;;;;;;1999.90;999.90;;;20.70;1.00;;;;;;5058701;28;20048;-85
2022/08/26 04:56:25;;;;;;;1999.90;999.90;;;20.60;1.00;;;;;;5036321;28;20045;-86
2022/08/26 04:58:51;;;;;;;1999.90;999.90;;;20.60;1.00;;;;;;5033751;28;20139;-84
2022/08/26 05:01:18;;;;;;;1999.90;999.90;;;19.60;1.00;;;;;;5017149;28;20052;-86
2022/08/26 05:03:47;;;;;;;1999.90;999.90;;;20.60;1.00;;;;;;5034491;28;20084;-85
2022/08/26 05:06:14;;;;;;;1999.90;999.90;;;20.70;1.00;;;;;;5047894;28;20053;-85
2022/08/26 05:08:40;;;;;;;1999.90;999.90;;;20.70;1.00;;;;;;5050050;28;20473;-84
2022/08/26 05:11:07;;;;;;;1999.90;999.90;;;20.70;1.00;;;;;;5050426;28;20405;-94
2022/08/26 05:13:34;;;;;;;1999.90;999.90;;;20.60;1.00;;;;;;5032493;28;20044;-85
2022/08/26 05:16:06;;;;;;;1999.90;999.90;;;20.70;1.00;;;;;;5049156;28;20072;-85
2022/08/26 05:18:33;;;;;;;1950.57;999.90;;;20.70;1.00;;;;;;5039891;28;20049;-87
2022/08/26 05:21:02;;;;;;;1883.30;999.90;;;20.70;1.00;;;;;;5030327;28;20057;-85
2022/08/26 05:23:33;;;;;;;1999.90;999.90;;;20.70;1.00;;;;;;5030440;28;20053;-85
2022/08/26 05:26:05;;;;;;;1999.90;999.90;;;20.70;1.00;;;;;;5047335;28;20045;-87
2022/08/26 05:28:31;;;;;;;1999.90;999.90;;;20.70;1.00;;;;;;5043763;28;20135;-84
2022/08/26 05:30:57;;;;;;;1999.90;999.90;;;20.70;1.00;;;;;;5033632;28;20478;-84
2022/08/26 05:33:23;;;;;;;1999.90;999.90;;;20.70;1.00;;;;;;5016761;28;20044;-85
2022/08/26 05:35:49;;;;;;;1999.90;999.90;;;20.70;1.00;;;;;;5031906;28;20409;-89
2022/08/26 05:38:18;;;;;;;1999.90;999.90;;;20.70;1.00;;;;;;5049045;28;20052;-86
2022/08/26 05:40:47;;;;;;;1999.90;999.90;;;20.70;1.00;;;;;;5049075;28;20120;-88
2022/08/26 05:43:14;;;;;;;1999.90;999.90;;;20.70;1.00;;;;;;5048436;28;20113;-90
2022/08/26 05:45:43;;;;;;;1999.90;999.90;;;20.60;1.00;;;;;;5033977;28;20049;-87
2022/08/26 05:48:09;;;;;;;1999.90;999.90;;;20.70;1.00;;;;;;5051077;28;20124;-88
2022/08/26 05:50:38;;;;;;;1999.90;999.90;;;20.70;1.00;;;;;;5028454;28;20562;-87
2022/08/26 05:53:09;;;;;;;1999.90;999.90;;;20.70;1.00;;;;;;5051996;28;20568;-84
2022/08/26 05:55:40;;;;;;;1999.90;999.90;;;19.50;1.00;;;;;;5036509;28;20053;-84
2022/08/26 05:58:09;;;;;;;1997.28;999.90;;;20.80;1.00;;;;;;5052899;28;20405;-83
2022/08/26 06:00:35;;;;;;;1999.90;999.90;;;20.90;1.00;;;;;;5036081;28;20456;-84
2022/08/26 06:03:01;;;;;;;1999.90;999.90;;;21.00;1.00;;;;;;5054313;28;20075;-85
2022/08/26 06:05:27;;;;;;;1999.90;999.90;;;21.00;1.00;;;;;;5056854;28;20485;-86
2022/08/26 06:10:50;;;;;;;1999.90;999.90;;;21.20;1.00;;;;;;5038771;28;20126;-85
2022/08/26 06:13:17;;;;;;;;;;;21.20;1.00;;;;;;5053038;28;20076;-85
2022/08/26 06:15:48;;;;;;;1999.90;999.90;;;21.30;1.00;;;;;;5044318;28;19983;-85
2022/08/26 06:18:17;;;;;;;1999.90;999.90;;;21.40;1.00;;;;;;5043716;28;20049;-86
2022/08/26 06:20:45;;;;;;;1999.90;999.90;;;21.40;1.00;;;;;;5072791;28;20618;-84
2022/08/26 06:25:57;;;;;;;1999.90;999.90;;;21.00;1.00;;;;;;5041167;28;20053;-85
2022/08/26 06:28:24;;;;;;;1999.90;999.90;;;21.50;1.00;;;;;;5048227;28;20494;-85
2022/08/26 06:30:51;;;;;;;1999.90;999.90;;;20.40;1.00;;;;;;5053683;28;20116;-88
2022/08/26 06:33:17;;;;;;;1999.90;999.90;;;21.60;1.00;;;;;;5033673;28;20544;-89
2022/08/26 06:35:45;;;;;;;1859.80;999.90;;;21.60;99.90;;;;;;5034866;28;20166;-85
2022/08/26 06:38:13;;;;;;;1523.60;999.90;;;21.80;1.00;;;;;;5048586;28;20056;-85
2022/08/26 06:40:57;;;;;;;1924.63;999.90;;;21.70;99.90;;;;;;5028196;28;20188;-85
2022/08/26 06:43:26;;;;;;;1956.47;999.90;;;21.80;99.90;;;;;;5050317;28;20036;-89
2022/08/26 06:46:01;;;;;;;1648.50;999.90;;;21.80;99.90;;;;;;5057040;28;20060;-85
2022/08/26 06:48:27;;;;;;;1691.80;996.20;;;21.90;99.90;;;;;;5045362;28;20041;-85
2022/08/26 06:51:08;;;;;;;1514.70;976.30;;;21.80;99.90;;;;;;5054168;28;20443;-84
2022/08/26 06:53:35;;;;;;;1436.78;986.03;;;21.90;99.90;;;;;;5041422;28;20176;-84
2022/08/26 06:56:09;;;;;;;1547.68;994.58;;;21.90;99.90;;;;;;5064559;28;20406;-86
2022/08/26 06:58:37;;;;;;;1880.10;999.90;;;21.90;99.90;;;;;;5050816;28;20093;-85
2022/08/26 07:01:15;;;;;;;1999.90;999.90;;;21.90;99.90;;;;;;5045558;28;20489;-85
2022/08/26 07:03:41;;;;;;;1860.93;999.90;;;21.90;99.90;;;;;;5033725;28;20053;-85
2022/08/26 07:06:07;;;;;;;1864.60;999.90;;;21.80;99.90;;;;;;5033877;28;20482;-87
2022/08/26 07:08:32;;;;;;;1999.90;999.90;;;21.80;99.90;;;;;;5063220;28;20041;-86
2022/08/26 07:11:07;;;;;;;1633.00;999.90;;;21.80;99.90;;;;;;5031814;28;20052;-84
2022/08/26 07:13:36;;;;;;;1599.85;999.90;;;21.70;99.90;;;;;;5034223;28;20056;-84
2022/08/26 07:16:04;;;;;;;1777.72;999.90;;;21.80;99.90;;;;;;5049897;28;20388;-84
2022/08/26 07:18:32;;;;;;;1999.90;999.90;;;21.70;99.90;;;;;;5053024;28;20044;-85
2022/08/26 07:20:59;;;;;;;;;;;21.80;99.90;;;;;;5036317;28;20056;-88
2022/08/26 07:23:25;;;;;;;1506.63;981.78;;;21.60;99.90;;;;;;5040807;28;20902;-89
2022/08/26 07:25:51;;;;;;;1617.05;999.90;;;20.60;99.90;;;;;;5031024;28;20056;-84
2022/08/26 07:28:17;;;;;;;1728.85;997.72;;;21.70;99.90;;;;;;5033538;28;20052;-84
2022/08/26 07:30:42;;;;;;;1690.15;999.90;;;21.80;99.90;;;;;;5035661;28;20112;-85
2022/08/26 07:33:08;;;;;;;1602.07;999.90;;;21.70;99.90;;;;;;5030158;28;20126;-85
2022/08/26 07:35:34;;;;;;;1566.22;999.90;;;21.70;99.90;;;;;;5018837;28;20090;-85
2022/08/26 07:38:00;;;;;;;1929.72;999.90;;;21.70;99.90;;;;;;5052493;28;20498;-84
2022/08/26 07:40:26;;;;;;;1750.95;996.08;;;21.80;99.90;;;;;;5033439;28;20037;-85
2022/08/26 07:42:52;;;;;;;1696.22;993.13;;;21.70;99.90;;;;;;5052518;28;20047;-85
2022/08/26 07:45:27;;;;;;;1711.35;996.83;;;21.70;99.90;;;;;;5028513;28;20478;-85
2022/08/26 07:47:58;;;;;;;1587.47;999.90;;;21.80;99.90;;;;;;5021155;28;20041;-85
2022/08/26 07:50:24;;;;;;;1957.68;999.90;;;21.70;99.90;;;;;;5053849;28;20029;-85
2022/08/26 07:52:50;;;;;;;1648.85;999.90;;;21.70;99.90;;;;;;5071061;28;20055;-84
2022/08/26 07:55:16;;;;;;;1792.15;964.50;;;21.80;99.90;;;;;;5048959;28;20041;-85
2022/08/26 07:57:42;;;;;;;1944.68;974.20;;;21.70;99.90;;;;;;5048530;28;20075;-87
2022/08/26 08:00:14;;;;;;;1845.75;999.90;;;21.40;99.90;;;;;;5034286;28;20414;-85
2022/08/26 08:02:43;;;;;;;1864.00;829.42;;;21.80;99.90;;;;;;5031018;28;20559;-85
2022/08/26 08:05:10;;;;;;;1434.60;544.95;;;21.80;99.90;;;;;;5039658;28;20044;-85
2022/08/26 08:07:36;;;;;;;1940.13;995.88;;;21.80;99.90;;;;;;5037606;28;20049;-83
2022/08/26 08:10:03;;;;;;;1571.07;680.58;;;21.80;99.90;;;;;;5018450;28;20048;-84
2022/08/26 08:12:29;;;;;;;1920.13;946.05;;;21.90;99.90;;;;;;5050717;28;20539;-85
2022/08/26 08:14:55;;;;;;;1995.43;976.58;;;21.90;99.90;;;;;;5051014;28;20048;-84
2022/08/26 08:17:21;;;;;;;1925.68;828.35;;;22.00;99.90;;;;;;5044489;28;20041;-84
2022/08/26 08:19:46;;;;;;;1999.90;902.45;;;22.10;99.90;;;;;;5042940;28;20037;-84
2022/08/26 08:22:12;;;;;;;1999.90;821.63;;;22.00;99.90;;;;;;5054226;28;20041;-83
2022/08/26 08:24:38;;;;;;;1999.90;932.35;;;22.10;99.90;;;;;;5051636;28;20037;-83
2022/08/26 08:27:04;;;;;;;1782.82;571.72;;;22.20;99.90;;;;;;5049228;28;20052;-85
2022/08/26 08:29:30;;;;;;;1697.53;810.08;;;22.30;99.90;;;;;;5033354;28;20060;-85
2022/08/26 08:31:57;;;;;;;1672.18;762.42;;;22.20;99.90;;;;;;5050378;28;20041;-85
2022/08/26 08:34:27;;;;;;;1486.68;473.95;;;22.20;99.90;;;;;;5051120;28;20049;-86
2022/08/26 08:36:57;;;;;;;1032.05;510.63;;;22.20;99.90;;;;;;5050353;28;20060;-85
2022/08/26 08:39:23;;;;;;;1019.80;462.45;;;22.30;99.90;;;;;;5050584;28;20048;-85
2022/08/26 08:42:12;;;;;;;1999.90;999.90;;;22.30;99.90;;;;;;5050780;28;20044;-85
2022/08/26 08:44:43;;;;;;;;;;;22.30;99.90;;;;;;5052307;28;20063;-85
2022/08/26 08:47:18;;;;;;;1999.90;999.90;;;22.40;99.90;;;;;;5051691;28;19921;-85
2022/08/26 08:49:45;;;;;;;1999.90;999.90;;;22.40;99.90;;;;;;5050649;28;20088;-85
2022/08/26 08:52:43;;;;;;;1718.57;992.78;;;22.50;99.90;;;;;;5041369;28;20050;-85
2022/08/26 08:55:12;;;;;;;1999.90;999.90;;;22.30;99.90;;;;;;5022602;28;20402;-84
2022/08/26 08:58:04;;;;;;;1728.07;816.03;;;22.30;99.90;;;;;;5054328;28;20045;-85
2022/08/26 09:01:00;;;;;;;1033.10;320.70;;;22.20;99.90;;;;;;5033944;28;20040;-87
2022/08/26 09:03:35;;;;;;;1999.90;999.90;;;22.30;99.90;;;;;;5047097;28;20053;-86
2022/08/26 09:06:02;;;;;;;1193.63;307.38;;;22.20;99.90;;;;;;5050722;28;20048;-85
2022/08/26 09:08:30;;;;;;;;;;;22.20;99.90;;;;;;5049669;28;20386;-85
2022/08/26 09:10:59;;;;;;;1999.90;999.90;;;22.30;99.90;;;;;;5050883;28;20357;-86
2022/08/26 09:13:25;;;;;;;1859.80;671.20;;;22.20;99.90;;;;;;5050522;28;20048;-87
2022/08/26 09:16:02;;;;;;;1981.40;753.65;;;22.20;99.90;;;;;;5051289;28;20247;-85
2022/08/26 09:18:38;;;;;;;1516.35;681.40;;;22.20;99.90;;;;;;5050128;28;20099;-86
2022/08/26 09:21:09;;;;;;;1014.15;253.57;;;22.40;99.90;;;;;;5054189;28;20061;-85
2022/08/26 09:23:38;;;;;;;1999.90;999.90;;;22.50;99.90;;;;;;5035943;28;20090;-86
2022/08/26 09:26:39;;;;;;;1823.53;812.13;;;22.50;99.90;;;;;;5039240;28;20102;-85
2022/08/26 09:29:22;;;;;;;1999.90;999.90;;;22.50;99.90;;;;;;5045750;28;20136;-86
2022/08/26 09:31:49;;;;;;;1868.65;830.83;;;22.60;99.90;;;;;;5037033;28;20037;-85
2022/08/26 09:34:25;;;;;;;1999.90;999.90;;;22.60;99.90;;;;;;5054276;28;20040;-83
2022/08/26 09:36:53;;;;;;;1999.90;999.90;;;22.50;99.90;;;;;;5037203;28;20130;-86
2022/08/26 09:39:37;;;;;;;1999.90;999.90;;;22.80;99.90;;;;;;5055714;28;20048;-85
2022/08/26 09:42:09;;;;;;;1999.90;999.90;;;23.00;99.90;;;;;;5053693;28;20128;-85
2022/08/26 09:44:50;;;;;;;1999.90;999.90;;;23.10;99.90;;;;;;5033848;28;20141;-86
2022/08/26 09:47:23;;;;;;;935.67;211.27;;;23.30;99.90;;;;;;5017706;28;20045;-86
2022/08/26 09:50:00;;;;;;;1999.90;999.90;;;23.50;99.90;;;;;;5045110;28;20057;-87
2022/08/26 09:52:26;;;;;;;1999.90;999.90;;;23.60;99.90;;;;;;5037116;28;20052;-86
2022/08/26 09:55:01;;;;;;;1999.90;999.90;;;23.60;99.90;;;;;;5036397;28;20044;-85
2022/08/26 09:57:31;;;;;;;1999.90;999.90;;;23.50;99.90;;;;;;5033151;28;20060;-85
2022/08/26 09:59:59;;;;;;;1999.90;999.90;;;23.50;99.90;;;;;;5043134;28;20041;-86
2022/08/26 10:02:31;;;;;;;1999.90;999.90;;;23.40;99.90;;;;;;5053653;28;20048;-85
2022/08/26 10:04:59;;;;;;;1999.90;999.90;;;23.20;99.90;;;;;;5053425;28;20141;-85
2022/08/26 10:07:49;;;;;;;1999.90;999.90;;;22.70;99.90;;;;;;5053276;28;20064;-86
2022/08/26 10:10:25;;;;;;;1999.90;999.90;;;23.10;99.90;;;;;;5043618;28;20049;-87
2022/08/26 10:13:16;;;;;;;1999.90;789.05;;;23.00;99.90;;;;;;5053107;28;20078;-86
2022/08/26 10:15:45;;;;;;;1999.90;999.90;;;21.90;99.90;;;;;;5033290;28;20140;-85
2022/08/26 10:18:24;;;;;;;1999.90;999.90;;;22.00;99.90;;;;;;5017534;28;20238;-86
2022/08/26 10:21:01;;;;;;;1999.90;999.90;;;22.80;99.90;;;;;;5043539;28;20053;-86
2022/08/26 10:23:31;;;;;;;1531.93;593.95;;;22.70;99.90;;;;;;5049996;28;20516;-87
2022/08/26 10:26:14;;;;;;;1640.35;508.08;;;23.20;99.90;;;;;;5032731;28;20092;-86
2022/08/26 10:29:18;;;;;;;1999.90;999.90;;;21.80;99.90;;;;;;5034534;28;20071;-86
2022/08/26 10:32:04;;;;;;;1999.90;999.90;;;22.90;99.90;;;;;;5045725;28;20060;-86
2022/08/26 10:34:33;;;;;;;1999.90;999.90;;;23.00;99.90;;;;;;5035897;28;20041;-86
2022/08/26 10:37:16;;;;;;;1999.90;999.90;;;23.20;99.90;;;;;;5052277;28;20080;-87
2022/08/26 10:39:52;;;;;;;1999.90;999.90;;;23.20;99.90;;;;;;5052745;28;20049;-88
2022/08/26 10:42:24;;;;;;;1753.72;791.65;;;23.20;99.90;;;;;;5034625;28;20052;-88
2022/08/26 10:44:54;;;;;;;1999.90;999.90;;;23.40;99.90;;;;;;5046186;28;20056;-86
2022/08/26 10:47:27;;;;;;;1999.90;999.90;;;23.50;99.90;;;;;;5052054;28;20397;-88
2022/08/26 10:49:54;;;;;;;1999.90;999.90;;;23.70;99.90;;;;;;5052646;28;20055;-84
2022/08/26 10:52:31;;;;;;;1999.90;999.90;;;23.70;99.90;;;;;;5053414;28;20080;-84
2022/08/26 10:55:02;;;;;;;1999.90;999.90;;;24.10;99.90;;;;;;5036911;28;20049;-83
2022/08/26 10:57:40;;;;;;;1999.90;999.90;;;24.10;99.90;;;;;;5050183;28;20049;-84
2022/08/26 11:03:28;;;;;;;1999.90;999.90;;;24.00;99.90;;;;;;5050983;28;20080;-83
2022/08/26 11:06:27;;;;;;;1999.90;999.90;;;23.90;99.90;;;;;;5037738;28;20045;-83
2022/08/26 11:08:59;;;;;;;1999.90;999.90;;;23.70;99.90;;;;;;5049331;28;20048;-83
2022/08/26 11:11:44;;;;;;;1999.90;999.90;;;23.60;99.90;;;;;;5035851;28;20056;-83
2022/08/26 11:14:19;;;;;;;1999.90;999.90;;;23.60;99.90;;;;;;5035929;28;20101;-83
2022/08/26 11:16:47;;;;;;;1999.90;999.90;;;23.40;99.90;;;;;;5032298;28;20056;-84
2022/08/26 11:19:29;;;;;;;1999.90;999.90;;;23.20;99.90;;;;;;5049599;28;20080;-83
2022/08/26 11:22:04;;;;;;;1999.90;999.90;;;23.10;99.90;;;;;;5047632;28;20135;-84
2022/08/26 11:24:51;;;;;;;1999.90;999.90;;;23.00;99.90;;;;;;5035386;28;20046;-83
2022/08/26 11:27:35;;;;;;;1999.90;999.90;;;22.80;99.90;;;;;;5062302;28;20127;-82
2022/08/26 11:30:12;;;;;;;1999.90;999.90;;;22.70;99.90;;;;;;5046682;28;20060;-83
2022/08/26 11:32:38;;;;;;;1904.20;592.10;;;22.60;99.90;;;;;;5052000;28;20458;-85
2022/08/26 11:35:08;;;;;;;1999.90;734.78;;;22.40;99.90;;;;;;5053160;28;20132;-83
2022/08/26 11:37:44;;;;;;;1860.93;446.40;;;22.40;99.90;;;;;;5048500;28;20523;-83
2022/08/26 11:40:32;;;;;;;1999.90;894.90;;;22.40;99.90;;;;;;5050966;28;20123;-84
2022/08/26 11:43:17;;;;;;;1999.90;999.90;;;22.30;99.90;;;;;;5037635;28;20053;-84
2022/08/26 11:45:57;;;;;;;1999.90;999.90;;;22.30;99.90;;;;;;5051770;28;20062;-85
2022/08/26 11:48:27;;;;;;;1887.28;823.80;;;22.30;99.90;;;;;;5051370;28;20397;-84
2022/08/26 11:51:02;;;;;;;1583.88;388.50;;;22.30;99.90;;;;;;5051626;28;20056;-84
2022/08/26 11:53:31;;;;;;;1999.90;999.90;;;22.30;99.90;;;;;;5059182;28;20097;-84
2022/08/26 11:55:58;;;;;;;1999.90;999.90;;;22.20;99.90;;;;;;5060153;28;20071;-83
2022/08/26 11:58:26;;;;;;;1999.90;999.90;;;22.30;99.90;;;;;;5049252;28;20045;-83
2022/08/26 12:01:00;;;;;;;1999.90;999.90;;;22.30;99.90;;;;;;5057712;28;20044;-83
2022/08/26 12:03:44;;;;;;;1999.90;890.83;;;22.40;99.90;;;;;;5051590;28;20047;-85
2022/08/26 12:06:14;;;;;;;1999.90;999.90;;;22.60;99.90;;;;;;5051931;28;20060;-84
2022/08/26 12:08:42;;;;;;;1999.90;999.90;;;22.20;99.90;;;;;;5052430;28;20052;-84
2022/08/26 12:11:32;;;;;;;1592.43;782.35;;;22.70;99.90;;;;;;5050307;28;20037;-83
2022/08/26 12:14:01;;;;;;;1999.90;999.90;;;22.70;99.90;;;;;;5049144;28;20179;-83
2022/08/26 12:16:31;;;;;;;1999.90;999.90;;;22.60;99.90;;;;;;5051434;28;20051;-84
2022/08/26 12:18:57;;;;;;;1999.90;999.90;;;22.50;99.90;;;;;;5064977;28;20517;-84
2022/08/26 12:21:28;;;;;;;1999.90;999.90;;;22.40;99.90;;;;;;5033469;28;20128;-84
2022/08/26 12:23:57;;;;;;;1999.90;999.90;;;22.20;99.90;;;;;;5051868;28;20490;-84
2022/08/26 12:26:24;;;;;;;1724.88;780.50;;;22.20;99.90;;;;;;5043600;28;20183;-88
2022/08/26 12:28:58;;;;;;;1999.90;999.90;;;22.10;99.90;;;;;;5030574;28;20453;-91
2022/08/26 12:31:26;;;;;;;1999.90;999.90;;;22.10;99.90;;;;;;5027863;28;20466;-85
2022/08/26 12:33:53;;;;;;;1999.90;999.90;;;22.10;99.90;;;;;;5047567;28;20113;-90